Thursday, July 19, 2018, 5:56 AM GMT
Back to Local

CWQO, Ile Bicquette, Que.

Location: , , Canada Lat: 48.416
Local Time: 5:56 AM GMT ( 5:56 GMT) Lon: -68.893
Time Zone: GMT Elev: 22 ft

Show me the last for .
Show Coded

Time T Td Feel RH Dir Speed Gust Alt SLP Vis Weather Sky Remarks
2018-07-19 05:00 49 42 45 77 220° 10 - - - 0 None
2018-07-19 04:00 48 42 43 79 210° 10 - - - 0 None
2018-07-19 03:00 51 43 - 74 220° 14 - - - 0 None
2018-07-19 02:00 52 43 - 71 210° 15 - - - 0 None
2018-07-19 01:00 52 44 - 75 180° 7 - - - 0 None
2018-07-18 22:00 59 46 - 61 160° 2 - - - 0 None
2018-07-18 21:00 58 43 - 56 280° 1 - - - 0 None
2018-07-18 20:00 60 45 - 57 250° 5 - - - 0 None
2018-07-18 19:00 58 45 - 61 220° 13 - - - 0 None
2018-07-18 18:00 59 45 - 59 210° 13 - - - 0 Peak wind: 19 mph (17 kts) from 220° at 00 min
2018-07-18 17:00 56 45 - 66 220° 15 - - - 0 None
2018-07-18 16:00 55 45 - 68 210° 12 - - - 0 None
2018-07-18 15:00 51 43 - 74 220° 10 - - - 0 None
2018-07-18 14:00 53 45 - 73 230° 8 - - - 0 None
2018-07-18 13:00 50 45 46 85 250° 9 - - - 0 None
2018-07-18 12:00 50 45 46 85 220° 8 - - - 0 None
2018-07-18 11:00 47 45 42 90 260° 14 - - - 0 None
2018-07-18 10:00 49 46 43 88 270° 17 - - - 0 Peak wind: 23 mph (20 kts) from 280° at 02 min
2018-07-18 09:00 50 49 - 94 280° 18 - - - 0 Peak wind: 21 mph (19 kts) from 270° at 58 min
2018-07-18 08:00 49 50 44 104 250° 12 - - - 0 None
2018-07-18 07:00 49 49 45 98 220° 12 - - - 0 None
2018-07-18 06:00 53 52 - 98 250° 10 - - - 0 None

Support USWX by starting your Amazon purchase here.